sensor_id;sensor_type;location;lat;lon;timestamp;P1;durP1;ratioP1;P2;durP2;ratioP2
6133;SDS011;3098;42.678;23.364;2023-04-28T00:00:36;5.88;;;2.35;;
6133;SDS011;3098;42.678;23.364;2023-04-28T00:03:03;4.43;;;2.40;;
6133;SDS011;3098;42.678;23.364;2023-04-28T00:05:31;7.33;;;2.70;;
6133;SDS011;3098;42.678;23.364;2023-04-28T00:07:57;6.97;;;2.60;;
6133;SDS011;3098;42.678;23.364;2023-04-28T00:10:26;5.35;;;2.83;;
6133;SDS011;3098;42.678;23.364;2023-04-28T00:12:53;6.97;;;2.87;;
6133;SDS011;3098;42.678;23.364;2023-04-28T00:15:20;3.93;;;2.57;;
6133;SDS011;3098;42.678;23.364;2023-04-28T00:17:47;5.37;;;2.30;;
6133;SDS011;3098;42.678;23.364;2023-04-28T00:20:14;4.07;;;2.20;;
6133;SDS011;3098;42.678;23.364;2023-04-28T00:22:42;8.13;;;2.63;;
6133;SDS011;3098;42.678;23.364;2023-04-28T00:25:09;5.77;;;2.80;;
6133;SDS011;3098;42.678;23.364;2023-04-28T00:27:37;6.30;;;3.17;;
6133;SDS011;3098;42.678;23.364;2023-04-28T00:30:04;4.57;;;2.33;;
6133;SDS011;3098;42.678;23.364;2023-04-28T00:32:32;7.87;;;2.80;;
6133;SDS011;3098;42.678;23.364;2023-04-28T00:35:01;5.07;;;2.43;;
6133;SDS011;3098;42.678;23.364;2023-04-28T00:37:28;5.67;;;2.37;;
6133;SDS011;3098;42.678;23.364;2023-04-28T00:39:55;3.17;;;2.00;;
6133;SDS011;3098;42.678;23.364;2023-04-28T00:42:22;5.27;;;2.60;;
6133;SDS011;3098;42.678;23.364;2023-04-28T00:44:50;4.77;;;2.40;;
6133;SDS011;3098;42.678;23.364;2023-04-28T00:47:17;3.63;;;2.33;;
6133;SDS011;3098;42.678;23.364;2023-04-28T00:49:44;5.03;;;2.40;;
6133;SDS011;3098;42.678;23.364;2023-04-28T00:52:13;6.73;;;2.90;;
6133;SDS011;3098;42.678;23.364;2023-04-28T00:54:41;5.93;;;2.50;;
6133;SDS011;3098;42.678;23.364;2023-04-28T00:57:11;8.27;;;2.30;;
6133;SDS011;3098;42.678;23.364;2023-04-28T00:59:39;5.63;;;2.30;;
6133;SDS011;3098;42.678;23.364;2023-04-28T01:02:08;5.03;;;2.43;;
6133;SDS011;3098;42.678;23.364;2023-04-28T01:04:41;6.63;;;2.63;;
6133;SDS011;3098;42.678;23.364;2023-04-28T01:07:09;3.27;;;2.47;;
6133;SDS011;3098;42.678;23.364;2023-04-28T01:09:36;7.77;;;2.70;;
6133;SDS011;3098;42.678;23.364;2023-04-28T01:12:03;8.53;;;2.33;;
6133;SDS011;3098;42.678;23.364;2023-04-28T01:14:31;5.70;;;3.57;;
6133;SDS011;3098;42.678;23.364;2023-04-28T01:16:59;4.17;;;2.57;;
6133;SDS011;3098;42.678;23.364;2023-04-28T01:19:28;5.40;;;2.70;;
6133;SDS011;3098;42.678;23.364;2023-04-28T01:21:55;5.07;;;2.77;;
6133;SDS011;3098;42.678;23.364;2023-04-28T01:24:23;5.00;;;2.63;;
6133;SDS011;3098;42.678;23.364;2023-04-28T01:26:50;5.13;;;2.87;;
6133;SDS011;3098;42.678;23.364;2023-04-28T01:29:17;4.97;;;2.60;;
6133;SDS011;3098;42.678;23.364;2023-04-28T01:31:44;3.63;;;2.33;;
6133;SDS011;3098;42.678;23.364;2023-04-28T01:34:11;5.03;;;2.73;;
6133;SDS011;3098;42.678;23.364;2023-04-28T01:36:38;5.13;;;2.60;;
6133;SDS011;3098;42.678;23.364;2023-04-28T01:39:05;8.17;;;2.77;;
6133;SDS011;3098;42.678;23.364;2023-04-28T01:41:34;5.57;;;2.80;;
6133;SDS011;3098;42.678;23.364;2023-04-28T01:44:01;7.57;;;3.10;;
6133;SDS011;3098;42.678;23.364;2023-04-28T01:46:28;3.60;;;2.30;;
6133;SDS011;3098;42.678;23.364;2023-04-28T01:48:55;6.83;;;2.70;;
6133;SDS011;3098;42.678;23.364;2023-04-28T01:51:22;5.77;;;3.00;;
6133;SDS011;3098;42.678;23.364;2023-04-28T01:53:49;7.50;;;2.73;;
6133;SDS011;3098;42.678;23.364;2023-04-28T01:56:16;9.13;;;3.00;;
6133;SDS011;3098;42.678;23.364;2023-04-28T01:58:45;7.90;;;2.70;;
6133;SDS011;3098;42.678;23.364;2023-04-28T02:01:12;4.43;;;2.63;;
6133;SDS011;3098;42.678;23.364;2023-04-28T02:03:39;5.50;;;2.60;;
6133;SDS011;3098;42.678;23.364;2023-04-28T02:06:06;5.03;;;2.70;;
6133;SDS011;3098;42.678;23.364;2023-04-28T02:08:33;9.23;;;3.07;;
6133;SDS011;3098;42.678;23.364;2023-04-28T02:11:00;5.27;;;2.77;;
6133;SDS011;3098;42.678;23.364;2023-04-28T02:13:28;4.27;;;2.70;;
6133;SDS011;3098;42.678;23.364;2023-04-28T02:15:58;5.27;;;2.90;;
6133;SDS011;3098;42.678;23.364;2023-04-28T02:18:26;3.97;;;2.57;;
6133;SDS011;3098;42.678;23.364;2023-04-28T02:20:53;8.57;;;3.27;;
6133;SDS011;3098;42.678;23.364;2023-04-28T02:23:20;5.90;;;2.70;;
6133;SDS011;3098;42.678;23.364;2023-04-28T02:25:47;6.07;;;3.53;;
6133;SDS011;3098;42.678;23.364;2023-04-28T02:28:14;6.23;;;2.77;;
6133;SDS011;3098;42.678;23.364;2023-04-28T02:30:42;5.57;;;2.87;;
6133;SDS011;3098;42.678;23.364;2023-04-28T02:33:10;5.43;;;3.00;;
6133;SDS011;3098;42.678;23.364;2023-04-28T02:35:37;7.53;;;2.97;;
6133;SDS011;3098;42.678;23.364;2023-04-28T02:38:04;12.17;;;3.07;;
6133;SDS011;3098;42.678;23.364;2023-04-28T02:40:31;7.03;;;3.03;;
6133;SDS011;3098;42.678;23.364;2023-04-28T02:42:58;8.93;;;3.17;;
6133;SDS011;3098;42.678;23.364;2023-04-28T02:45:25;5.23;;;2.83;;
6133;SDS011;3098;42.678;23.364;2023-04-28T02:47:52;6.30;;;2.40;;
6133;SDS011;3098;42.678;23.364;2023-04-28T02:50:21;4.17;;;2.70;;
6133;SDS011;3098;42.678;23.364;2023-04-28T02:52:48;7.63;;;3.10;;
6133;SDS011;3098;42.678;23.364;2023-04-28T02:55:16;6.53;;;3.23;;
6133;SDS011;3098;42.678;23.364;2023-04-28T02:57:48;6.93;;;2.80;;
6133;SDS011;3098;42.678;23.364;2023-04-28T03:00:15;5.80;;;2.67;;
6133;SDS011;3098;42.678;23.364;2023-04-28T03:02:42;8.13;;;3.20;;
6133;SDS011;3098;42.678;23.364;2023-04-28T03:05:09;7.53;;;2.70;;
6133;SDS011;3098;42.678;23.364;2023-04-28T03:07:37;4.83;;;2.60;;
6133;SDS011;3098;42.678;23.364;2023-04-28T03:10:04;8.03;;;2.87;;
6133;SDS011;3098;42.678;23.364;2023-04-28T03:12:32;6.67;;;3.00;;
6133;SDS011;3098;42.678;23.364;2023-04-28T03:14:59;4.07;;;2.60;;
6133;SDS011;3098;42.678;23.364;2023-04-28T03:17:27;5.07;;;2.07;;
6133;SDS011;3098;42.678;23.364;2023-04-28T03:19:54;4.77;;;2.50;;
6133;SDS011;3098;42.678;23.364;2023-04-28T03:22:21;4.60;;;2.53;;
6133;SDS011;3098;42.678;23.364;2023-04-28T03:24:49;7.20;;;2.70;;
6133;SDS011;3098;42.678;23.364;2023-04-28T03:27:16;5.27;;;3.00;;
6133;SDS011;3098;42.678;23.364;2023-04-28T03:29:44;4.67;;;2.73;;
6133;SDS011;3098;42.678;23.364;2023-04-28T03:32:11;8.47;;;2.80;;
6133;SDS011;3098;42.678;23.364;2023-04-28T03:34:38;4.50;;;2.63;;
6133;SDS011;3098;42.678;23.364;2023-04-28T03:37:05;6.30;;;2.93;;
6133;SDS011;3098;42.678;23.364;2023-04-28T03:39:32;8.63;;;3.30;;
6133;SDS011;3098;42.678;23.364;2023-04-28T03:42:01;11.23;;;3.10;;
6133;SDS011;3098;42.678;23.364;2023-04-28T03:44:28;8.13;;;3.67;;
6133;SDS011;3098;42.678;23.364;2023-04-28T03:46:55;7.97;;;2.97;;
6133;SDS011;3098;42.678;23.364;2023-04-28T03:49:22;9.87;;;2.77;;
6133;SDS011;3098;42.678;23.364;2023-04-28T03:51:49;9.80;;;3.10;;
6133;SDS011;3098;42.678;23.364;2023-04-28T03:54:17;7.87;;;3.23;;
6133;SDS011;3098;42.678;23.364;2023-04-28T03:56:45;10.83;;;3.20;;
6133;SDS011;3098;42.678;23.364;2023-04-28T03:59:13;6.63;;;2.93;;
6133;SDS011;3098;42.678;23.364;2023-04-28T04:01:40;5.03;;;2.80;;
6133;SDS011;3098;42.678;23.364;2023-04-28T04:04:07;9.93;;;5.43;;
6133;SDS011;3098;42.678;23.364;2023-04-28T04:06:34;11.93;;;3.43;;
6133;SDS011;3098;42.678;23.364;2023-04-28T04:09:01;7.10;;;3.40;;
6133;SDS011;3098;42.678;23.364;2023-04-28T04:11:28;4.70;;;2.87;;
6133;SDS011;3098;42.678;23.364;2023-04-28T04:13:55;6.73;;;2.90;;
6133;SDS011;3098;42.678;23.364;2023-04-28T04:16:24;5.63;;;2.90;;
6133;SDS011;3098;42.678;23.364;2023-04-28T04:18:51;5.90;;;3.07;;
6133;SDS011;3098;42.678;23.364;2023-04-28T04:21:18;5.43;;;3.10;;
6133;SDS011;3098;42.678;23.364;2023-04-28T04:23:45;5.50;;;3.07;;
6133;SDS011;3098;42.678;23.364;2023-04-28T04:26:12;9.63;;;3.30;;
6133;SDS011;3098;42.678;23.364;2023-04-28T04:28:39;6.53;;;3.50;;
6133;SDS011;3098;42.678;23.364;2023-04-28T04:31:06;6.77;;;3.50;;
6133;SDS011;3098;42.678;23.364;2023-04-28T04:33:35;7.23;;;3.00;;
6133;SDS011;3098;42.678;23.364;2023-04-28T04:36:02;5.67;;;2.87;;
6133;SDS011;3098;42.678;23.364;2023-04-28T04:38:30;11.47;;;3.20;;
6133;SDS011;3098;42.678;23.364;2023-04-28T04:40:57;6.83;;;3.37;;
6133;SDS011;3098;42.678;23.364;2023-04-28T04:43:24;9.33;;;2.97;;
6133;SDS011;3098;42.678;23.364;2023-04-28T04:45:51;9.47;;;3.23;;
6133;SDS011;3098;42.678;23.364;2023-04-28T04:48:18;4.33;;;3.00;;
6133;SDS011;3098;42.678;23.364;2023-04-28T04:50:47;9.43;;;3.43;;
6133;SDS011;3098;42.678;23.364;2023-04-28T04:53:14;12.93;;;6.70;;
6133;SDS011;3098;42.678;23.364;2023-04-28T04:55:41;13.87;;;3.57;;
6133;SDS011;3098;42.678;23.364;2023-04-28T04:58:08;8.20;;;3.17;;
6133;SDS011;3098;42.678;23.364;2023-04-28T05:00:36;5.20;;;2.63;;
6133;SDS011;3098;42.678;23.364;2023-04-28T05:03:03;8.63;;;4.13;;
6133;SDS011;3098;42.678;23.364;2023-04-28T05:05:30;8.90;;;3.60;;
6133;SDS011;3098;42.678;23.364;2023-04-28T05:08:00;6.10;;;3.30;;
6133;SDS011;3098;42.678;23.364;2023-04-28T05:10:27;7.93;;;3.40;;
6133;SDS011;3098;42.678;23.364;2023-04-28T05:12:54;9.40;;;3.23;;
6133;SDS011;3098;42.678;23.364;2023-04-28T05:15:21;6.78;;;3.03;;
6133;SDS011;3098;42.678;23.364;2023-04-28T05:17:48;5.85;;;2.92;;
6133;SDS011;3098;42.678;23.364;2023-04-28T05:20:15;5.20;;;3.40;;
6133;SDS011;3098;42.678;23.364;2023-04-28T05:22:42;9.63;;;3.20;;
6133;SDS011;3098;42.678;23.364;2023-04-28T05:25:12;3.70;;;2.63;;
6133;SDS011;3098;42.678;23.364;2023-04-28T05:27:39;5.78;;;2.90;;
6133;SDS011;3098;42.678;23.364;2023-04-28T05:30:06;7.35;;;2.92;;
6133;SDS011;3098;42.678;23.364;2023-04-28T05:32:36;5.70;;;2.70;;
6133;SDS011;3098;42.678;23.364;2023-04-28T05:35:04;6.50;;;2.95;;
6133;SDS011;3098;42.678;23.364;2023-04-28T05:37:31;5.22;;;3.00;;
6133;SDS011;3098;42.678;23.364;2023-04-28T05:39:58;5.53;;;3.25;;
6133;SDS011;3098;42.678;23.364;2023-04-28T05:42:27;4.38;;;2.75;;
6133;SDS011;3098;42.678;23.364;2023-04-28T05:44:55;7.00;;;2.95;;
6133;SDS011;3098;42.678;23.364;2023-04-28T05:47:23;6.35;;;2.90;;
6133;SDS011;3098;42.678;23.364;2023-04-28T05:49:51;5.43;;;3.15;;
6133;SDS011;3098;42.678;23.364;2023-04-28T05:52:18;6.70;;;2.72;;
6133;SDS011;3098;42.678;23.364;2023-04-28T05:54:46;4.55;;;2.80;;
6133;SDS011;3098;42.678;23.364;2023-04-28T05:57:13;5.22;;;3.00;;
6133;SDS011;3098;42.678;23.364;2023-04-28T05:59:45;10.43;;;2.88;;
6133;SDS011;3098;42.678;23.364;2023-04-28T06:02:12;3.63;;;2.25;;
6133;SDS011;3098;42.678;23.364;2023-04-28T06:04:39;6.28;;;2.90;;
6133;SDS011;3098;42.678;23.364;2023-04-28T06:07:06;5.45;;;3.33;;
6133;SDS011;3098;42.678;23.364;2023-04-28T06:09:34;11.65;;;3.25;;
6133;SDS011;3098;42.678;23.364;2023-04-28T06:12:02;5.15;;;2.72;;
6133;SDS011;3098;42.678;23.364;2023-04-28T06:14:29;5.07;;;3.10;;
6133;SDS011;3098;42.678;23.364;2023-04-28T06:16:58;5.32;;;2.60;;
6133;SDS011;3098;42.678;23.364;2023-04-28T06:19:25;6.20;;;3.13;;
6133;SDS011;3098;42.678;23.364;2023-04-28T06:21:53;5.78;;;2.65;;
6133;SDS011;3098;42.678;23.364;2023-04-28T06:24:20;5.75;;;2.90;;
6133;SDS011;3098;42.678;23.364;2023-04-28T06:26:47;5.40;;;2.58;;
6133;SDS011;3098;42.678;23.364;2023-04-28T06:29:14;5.22;;;2.90;;
6133;SDS011;3098;42.678;23.364;2023-04-28T06:31:42;6.13;;;2.90;;
6133;SDS011;3098;42.678;23.364;2023-04-28T06:34:11;6.38;;;2.92;;
6133;SDS011;3098;42.678;23.364;2023-04-28T06:36:38;7.47;;;2.70;;
6133;SDS011;3098;42.678;23.364;2023-04-28T06:39:05;4.03;;;2.47;;
6133;SDS011;3098;42.678;23.364;2023-04-28T06:41:33;5.57;;;3.10;;
6133;SDS011;3098;42.678;23.364;2023-04-28T06:44:01;4.32;;;2.85;;
6133;SDS011;3098;42.678;23.364;2023-04-28T06:46:28;6.57;;;2.55;;
6133;SDS011;3098;42.678;23.364;2023-04-28T06:48:59;6.55;;;3.40;;
6133;SDS011;3098;42.678;23.364;2023-04-28T06:51:29;9.40;;;3.03;;
6133;SDS011;3098;42.678;23.364;2023-04-28T06:53:57;7.90;;;2.92;;
6133;SDS011;3098;42.678;23.364;2023-04-28T06:56:24;8.18;;;3.00;;
6133;SDS011;3098;42.678;23.364;2023-04-28T06:58:53;7.18;;;2.83;;
6133;SDS011;3098;42.678;23.364;2023-04-28T07:01:22;4.10;;;2.60;;
6133;SDS011;3098;42.678;23.364;2023-04-28T07:03:50;6.78;;;3.20;;
6133;SDS011;3098;42.678;23.364;2023-04-28T07:06:18;7.78;;;2.88;;
6133;SDS011;3098;42.678;23.364;2023-04-28T07:08:47;5.40;;;3.08;;
6133;SDS011;3098;42.678;23.364;2023-04-28T07:11:14;4.32;;;2.67;;
6133;SDS011;3098;42.678;23.364;2023-04-28T07:13:41;5.70;;;2.92;;
6133;SDS011;3098;42.678;23.364;2023-04-28T07:16:10;6.68;;;3.47;;
6133;SDS011;3098;42.678;23.364;2023-04-28T07:18:37;4.22;;;2.63;;
6133;SDS011;3098;42.678;23.364;2023-04-28T07:21:04;6.07;;;2.78;;
6133;SDS011;3098;42.678;23.364;2023-04-28T07:23:32;5.45;;;2.80;;
6133;SDS011;3098;42.678;23.364;2023-04-28T07:26:01;5.07;;;2.70;;
6133;SDS011;3098;42.678;23.364;2023-04-28T07:28:29;6.13;;;2.88;;
6133;SDS011;3098;42.678;23.364;2023-04-28T07:30:56;3.15;;;2.47;;
6133;SDS011;3098;42.678;23.364;2023-04-28T07:33:24;9.88;;;3.13;;
6133;SDS011;3098;42.678;23.364;2023-04-28T07:35:52;7.20;;;3.30;;
6133;SDS011;3098;42.678;23.364;2023-04-28T07:38:19;6.13;;;3.25;;
6133;SDS011;3098;42.678;23.364;2023-04-28T07:40:48;6.88;;;2.95;;
6133;SDS011;3098;42.678;23.364;2023-04-28T07:43:17;5.10;;;2.90;;
6133;SDS011;3098;42.678;23.364;2023-04-28T07:45:44;7.07;;;2.10;;
6133;SDS011;3098;42.678;23.364;2023-04-28T07:48:13;7.90;;;2.70;;
6133;SDS011;3098;42.678;23.364;2023-04-28T07:50:40;8.98;;;2.90;;
6133;SDS011;3098;42.678;23.364;2023-04-28T07:53:08;8.82;;;3.35;;
6133;SDS011;3098;42.678;23.364;2023-04-28T07:55:38;3.70;;;2.30;;
6133;SDS011;3098;42.678;23.364;2023-04-28T07:58:06;5.65;;;2.72;;
6133;SDS011;3098;42.678;23.364;2023-04-28T08:00:35;4.50;;;2.50;;
6133;SDS011;3098;42.678;23.364;2023-04-28T08:03:03;5.82;;;3.13;;
6133;SDS011;3098;42.678;23.364;2023-04-28T08:05:30;4.93;;;2.78;;
6133;SDS011;3098;42.678;23.364;2023-04-28T08:07:58;6.32;;;2.65;;
6133;SDS011;3098;42.678;23.364;2023-04-28T08:10:26;5.32;;;2.40;;
6133;SDS011;3098;42.678;23.364;2023-04-28T08:12:53;4.13;;;2.58;;
6133;SDS011;3098;42.678;23.364;2023-04-28T08:15:21;3.97;;;2.53;;
6133;SDS011;3098;42.678;23.364;2023-04-28T08:17:52;6.35;;;2.70;;
6133;SDS011;3098;42.678;23.364;2023-04-28T08:20:19;5.30;;;2.70;;
6133;SDS011;3098;42.678;23.364;2023-04-28T08:22:46;4.63;;;2.60;;
6133;SDS011;3098;42.678;23.364;2023-04-28T08:25:13;3.90;;;2.38;;
6133;SDS011;3098;42.678;23.364;2023-04-28T08:27:40;6.57;;;2.55;;
6133;SDS011;3098;42.678;23.364;2023-04-28T08:30:08;4.25;;;2.80;;
6133;SDS011;3098;42.678;23.364;2023-04-28T08:32:37;4.95;;;2.53;;
6133;SDS011;3098;42.678;23.364;2023-04-28T08:35:06;7.30;;;2.53;;
6133;SDS011;3098;42.678;23.364;2023-04-28T08:37:33;3.53;;;2.05;;
6133;SDS011;3098;42.678;23.364;2023-04-28T08:40:01;4.82;;;2.45;;
6133;SDS011;3098;42.678;23.364;2023-04-28T08:42:35;5.65;;;2.42;;
6133;SDS011;3098;42.678;23.364;2023-04-28T08:45:04;4.70;;;2.33;;
6133;SDS011;3098;42.678;23.364;2023-04-28T08:47:33;6.60;;;2.50;;
6133;SDS011;3098;42.678;23.364;2023-04-28T08:50:02;7.72;;;2.28;;
6133;SDS011;3098;42.678;23.364;2023-04-28T08:52:32;4.45;;;2.10;;
6133;SDS011;3098;42.678;23.364;2023-04-28T08:55:04;6.88;;;2.55;;
6133;SDS011;3098;42.678;23.364;2023-04-28T08:57:34;4.47;;;2.75;;
6133;SDS011;3098;42.678;23.364;2023-04-28T09:00:04;5.45;;;2.42;;
6133;SDS011;3098;42.678;23.364;2023-04-28T09:02:32;5.97;;;2.63;;
6133;SDS011;3098;42.678;23.364;2023-04-28T09:05:01;7.30;;;2.80;;
6133;SDS011;3098;42.678;23.364;2023-04-28T09:07:29;8.48;;;2.75;;
6133;SDS011;3098;42.678;23.364;2023-04-28T09:10:16;5.50;;;3.33;;
6133;SDS011;3098;42.678;23.364;2023-04-28T09:12:45;6.55;;;2.75;;
6133;SDS011;3098;42.678;23.364;2023-04-28T09:15:29;2.88;;;2.13;;
6133;SDS011;3098;42.678;23.364;2023-04-28T09:17:58;4.18;;;2.72;;
6133;SDS011;3098;42.678;23.364;2023-04-28T09:20:27;5.13;;;2.95;;
6133;SDS011;3098;42.678;23.364;2023-04-28T09:22:56;7.30;;;2.42;;
6133;SDS011;3098;42.678;23.364;2023-04-28T09:25:41;2.75;;;1.80;;
6133;SDS011;3098;42.678;23.364;2023-04-28T09:28:21;4.78;;;2.45;;
6133;SDS011;3098;42.678;23.364;2023-04-28T09:30:49;3.65;;;2.13;;
6133;SDS011;3098;42.678;23.364;2023-04-28T09:33:16;4.55;;;2.10;;
6133;SDS011;3098;42.678;23.364;2023-04-28T09:35:45;6.70;;;2.25;;
6133;SDS011;3098;42.678;23.364;2023-04-28T09:38:13;2.65;;;2.20;;
6133;SDS011;3098;42.678;23.364;2023-04-28T09:40:55;4.55;;;2.97;;
6133;SDS011;3098;42.678;23.364;2023-04-28T09:43:24;4.60;;;2.35;;
6133;SDS011;3098;42.678;23.364;2023-04-28T09:45:53;3.45;;;2.33;;
6133;SDS011;3098;42.678;23.364;2023-04-28T09:48:31;3.00;;;2.00;;
6133;SDS011;3098;42.678;23.364;2023-04-28T09:50:59;3.22;;;2.13;;
6133;SDS011;3098;42.678;23.364;2023-04-28T09:53:28;7.32;;;2.63;;
6133;SDS011;3098;42.678;23.364;2023-04-28T09:55:58;3.17;;;1.67;;
6133;SDS011;3098;42.678;23.364;2023-04-28T09:58:27;2.85;;;2.08;;
6133;SDS011;3098;42.678;23.364;2023-04-28T10:00:57;8.38;;;2.58;;
6133;SDS011;3098;42.678;23.364;2023-04-28T10:03:26;4.97;;;2.67;;
6133;SDS011;3098;42.678;23.364;2023-04-28T10:05:55;3.72;;;2.08;;
6133;SDS011;3098;42.678;23.364;2023-04-28T10:08:24;3.75;;;2.50;;
6133;SDS011;3098;42.678;23.364;2023-04-28T10:10:52;3.90;;;2.35;;
6133;SDS011;3098;42.678;23.364;2023-04-28T10:13:22;6.35;;;2.25;;
6133;SDS011;3098;42.678;23.364;2023-04-28T10:15:49;4.70;;;2.42;;
6133;SDS011;3098;42.678;23.364;2023-04-28T10:18:19;4.38;;;2.13;;
6133;SDS011;3098;42.678;23.364;2023-04-28T10:20:48;4.35;;;1.85;;
6133;SDS011;3098;42.678;23.364;2023-04-28T10:23:29;4.05;;;2.40;;
6133;SDS011;3098;42.678;23.364;2023-04-28T10:26:12;4.68;;;2.10;;
6133;SDS011;3098;42.678;23.364;2023-04-28T10:28:45;3.97;;;2.00;;
6133;SDS011;3098;42.678;23.364;2023-04-28T10:31:14;5.95;;;1.90;;
6133;SDS011;3098;42.678;23.364;2023-04-28T10:33:44;4.63;;;2.28;;
6133;SDS011;3098;42.678;23.364;2023-04-28T10:39:14;6.68;;;1.98;;
6133;SDS011;3098;42.678;23.364;2023-04-28T10:41:42;6.68;;;2.25;;
6133;SDS011;3098;42.678;23.364;2023-04-28T10:47:09;8.32;;;2.47;;
6133;SDS011;3098;42.678;23.364;2023-04-28T10:52:47;5.35;;;2.28;;
6133;SDS011;3098;42.678;23.364;2023-04-28T10:55:25;2.50;;;1.95;;
6133;SDS011;3098;42.678;23.364;2023-04-28T11:00:57;2.75;;;2.10;;
6133;SDS011;3098;42.678;23.364;2023-04-28T11:03:52;4.85;;;1.92;;
6133;SDS011;3098;42.678;23.364;2023-04-28T11:06:28;5.13;;;1.98;;
6133;SDS011;3098;42.678;23.364;2023-04-28T11:08:57;2.58;;;1.63;;
6133;SDS011;3098;42.678;23.364;2023-04-28T11:11:26;8.73;;;2.00;;
6133;SDS011;3098;42.678;23.364;2023-04-28T11:13:54;5.40;;;1.50;;
6133;SDS011;3098;42.678;23.364;2023-04-28T11:16:50;3.67;;;1.77;;
6133;SDS011;3098;42.678;23.364;2023-04-28T11:19:19;3.17;;;1.90;;
6133;SDS011;3098;42.678;23.364;2023-04-28T11:21:47;2.80;;;1.70;;
6133;SDS011;3098;42.678;23.364;2023-04-28T11:24:14;5.85;;;2.08;;
6133;SDS011;3098;42.678;23.364;2023-04-28T11:26:42;3.45;;;2.00;;
6133;SDS011;3098;42.678;23.364;2023-04-28T11:29:10;5.22;;;2.47;;
6133;SDS011;3098;42.678;23.364;2023-04-28T11:31:39;5.45;;;1.95;;
6133;SDS011;3098;42.678;23.364;2023-04-28T11:34:10;3.33;;;1.90;;
6133;SDS011;3098;42.678;23.364;2023-04-28T11:36:39;3.47;;;1.80;;
6133;SDS011;3098;42.678;23.364;2023-04-28T11:39:07;3.33;;;1.70;;
6133;SDS011;3098;42.678;23.364;2023-04-28T11:41:36;4.30;;;2.05;;
6133;SDS011;3098;42.678;23.364;2023-04-28T11:44:11;5.20;;;2.33;;
6133;SDS011;3098;42.678;23.364;2023-04-28T11:46:43;9.98;;;2.28;;
6133;SDS011;3098;42.678;23.364;2023-04-28T11:49:16;4.72;;;2.00;;
6133;SDS011;3098;42.678;23.364;2023-04-28T11:51:45;3.03;;;2.08;;
6133;SDS011;3098;42.678;23.364;2023-04-28T11:54:18;4.22;;;2.08;;
6133;SDS011;3098;42.678;23.364;2023-04-28T11:56:47;2.20;;;1.75;;
6133;SDS011;3098;42.678;23.364;2023-04-28T11:59:14;4.22;;;2.38;;
6133;SDS011;3098;42.678;23.364;2023-04-28T12:01:46;3.63;;;2.05;;
6133;SDS011;3098;42.678;23.364;2023-04-28T12:04:26;5.47;;;1.80;;
6133;SDS011;3098;42.678;23.364;2023-04-28T12:07:02;7.10;;;2.15;;
6133;SDS011;3098;42.678;23.364;2023-04-28T12:09:31;4.25;;;2.33;;
6133;SDS011;3098;42.678;23.364;2023-04-28T12:12:00;4.80;;;2.35;;
6133;SDS011;3098;42.678;23.364;2023-04-28T12:14:29;3.00;;;1.98;;
6133;SDS011;3098;42.678;23.364;2023-04-28T12:16:59;3.10;;;2.00;;
6133;SDS011;3098;42.678;23.364;2023-04-28T12:19:28;3.97;;;2.40;;
6133;SDS011;3098;42.678;23.364;2023-04-28T12:21:59;4.85;;;2.20;;
6133;SDS011;3098;42.678;23.364;2023-04-28T12:24:29;6.18;;;2.20;;
6133;SDS011;3098;42.678;23.364;2023-04-28T12:27:15;4.03;;;1.90;;
6133;SDS011;3098;42.678;23.364;2023-04-28T12:29:45;2.95;;;1.95;;
6133;SDS011;3098;42.678;23.364;2023-04-28T12:32:13;4.72;;;2.30;;
6133;SDS011;3098;42.678;23.364;2023-04-28T12:34:43;4.25;;;1.92;;
6133;SDS011;3098;42.678;23.364;2023-04-28T12:37:12;2.35;;;1.55;;
6133;SDS011;3098;42.678;23.364;2023-04-28T12:39:40;2.90;;;2.03;;
6133;SDS011;3098;42.678;23.364;2023-04-28T12:42:08;2.17;;;1.73;;
6133;SDS011;3098;42.678;23.364;2023-04-28T12:44:36;4.68;;;1.88;;
6133;SDS011;3098;42.678;23.364;2023-04-28T12:47:05;4.68;;;2.10;;
6133;SDS011;3098;42.678;23.364;2023-04-28T12:49:34;4.15;;;2.00;;
6133;SDS011;3098;42.678;23.364;2023-04-28T12:52:04;3.92;;;2.08;;
6133;SDS011;3098;42.678;23.364;2023-04-28T12:54:31;5.18;;;2.10;;
6133;SDS011;3098;42.678;23.364;2023-04-28T12:56:58;2.92;;;2.33;;
6133;SDS011;3098;42.678;23.364;2023-04-28T12:59:26;4.88;;;2.00;;
6133;SDS011;3098;42.678;23.364;2023-04-28T13:01:53;2.28;;;1.73;;
6133;SDS011;3098;42.678;23.364;2023-04-28T13:04:21;3.83;;;2.15;;
6133;SDS011;3098;42.678;23.364;2023-04-28T13:06:48;5.18;;;2.60;;
6133;SDS011;3098;42.678;23.364;2023-04-28T13:09:18;3.55;;;2.22;;
6133;SDS011;3098;42.678;23.364;2023-04-28T13:11:45;4.88;;;2.10;;
6133;SDS011;3098;42.678;23.364;2023-04-28T13:14:13;3.53;;;2.70;;
6133;SDS011;3098;42.678;23.364;2023-04-28T13:16:40;4.18;;;2.58;;
6133;SDS011;3098;42.678;23.364;2023-04-28T13:19:07;3.78;;;2.20;;
6133;SDS011;3098;42.678;23.364;2023-04-28T13:21:37;3.53;;;2.20;;
6133;SDS011;3098;42.678;23.364;2023-04-28T13:24:06;3.40;;;1.80;;
6133;SDS011;3098;42.678;23.364;2023-04-28T13:26:34;3.97;;;2.05;;
6133;SDS011;3098;42.678;23.364;2023-04-28T13:29:02;4.68;;;1.88;;
6133;SDS011;3098;42.678;23.364;2023-04-28T13:31:29;3.80;;;1.95;;
6133;SDS011;3098;42.678;23.364;2023-04-28T13:33:57;4.70;;;1.52;;
6133;SDS011;3098;42.678;23.364;2023-04-28T13:36:28;4.22;;;2.30;;
6133;SDS011;3098;42.678;23.364;2023-04-28T13:38:55;4.03;;;2.30;;
6133;SDS011;3098;42.678;23.364;2023-04-28T13:41:22;5.38;;;2.15;;
6133;SDS011;3098;42.678;23.364;2023-04-28T13:43:52;3.00;;;1.60;;
6133;SDS011;3098;42.678;23.364;2023-04-28T13:46:19;6.10;;;2.13;;
6133;SDS011;3098;42.678;23.364;2023-04-28T13:48:47;2.65;;;1.77;;
6133;SDS011;3098;42.678;23.364;2023-04-28T13:51:14;4.57;;;2.03;;
6133;SDS011;3098;42.678;23.364;2023-04-28T13:53:41;8.00;;;2.45;;
6133;SDS011;3098;42.678;23.364;2023-04-28T13:56:08;3.72;;;2.22;;
6133;SDS011;3098;42.678;23.364;2023-04-28T13:58:36;5.97;;;2.50;;
6133;SDS011;3098;42.678;23.364;2023-04-28T14:01:05;4.25;;;2.70;;
6133;SDS011;3098;42.678;23.364;2023-04-28T14:03:32;6.53;;;2.33;;
6133;SDS011;3098;42.678;23.364;2023-04-28T14:06:00;5.15;;;2.28;;
6133;SDS011;3098;42.678;23.364;2023-04-28T14:08:27;5.25;;;1.90;;
6133;SDS011;3098;42.678;23.364;2023-04-28T14:10:54;5.10;;;1.90;;
6133;SDS011;3098;42.678;23.364;2023-04-28T14:13:21;7.05;;;2.08;;
6133;SDS011;3098;42.678;23.364;2023-04-28T14:15:50;3.72;;;2.00;;
6133;SDS011;3098;42.678;23.364;2023-04-28T14:18:19;5.63;;;2.20;;
6133;SDS011;3098;42.678;23.364;2023-04-28T14:20:46;7.40;;;2.20;;
6133;SDS011;3098;42.678;23.364;2023-04-28T14:23:13;3.75;;;1.80;;
6133;SDS011;3098;42.678;23.364;2023-04-28T14:25:40;5.22;;;2.00;;
6133;SDS011;3098;42.678;23.364;2023-04-28T14:28:08;4.03;;;2.28;;
6133;SDS011;3098;42.678;23.364;2023-04-28T14:30:35;2.10;;;1.55;;
6133;SDS011;3098;42.678;23.364;2023-04-28T14:33:02;12.93;;;2.45;;
6133;SDS011;3098;42.678;23.364;2023-04-28T14:35:31;4.43;;;2.13;;
6133;SDS011;3098;42.678;23.364;2023-04-28T14:37:59;4.90;;;2.33;;
6133;SDS011;3098;42.678;23.364;2023-04-28T14:40:27;3.13;;;2.08;;
6133;SDS011;3098;42.678;23.364;2023-04-28T14:42:54;3.40;;;1.85;;
6133;SDS011;3098;42.678;23.364;2023-04-28T14:45:21;4.70;;;2.78;;
6133;SDS011;3098;42.678;23.364;2023-04-28T14:47:48;3.15;;;1.85;;
6133;SDS011;3098;42.678;23.364;2023-04-28T14:50:16;3.88;;;2.20;;
6133;SDS011;3098;42.678;23.364;2023-04-28T14:52:45;13.38;;;2.35;;
6133;SDS011;3098;42.678;23.364;2023-04-28T14:55:12;5.65;;;2.22;;
6133;SDS011;3098;42.678;23.364;2023-04-28T14:57:39;2.63;;;2.10;;
6133;SDS011;3098;42.678;23.364;2023-04-28T15:00:07;3.70;;;2.50;;
6133;SDS011;3098;42.678;23.364;2023-04-28T15:02:35;6.05;;;2.30;;
6133;SDS011;3098;42.678;23.364;2023-04-28T15:05:02;3.42;;;2.10;;
6133;SDS011;3098;42.678;23.364;2023-04-28T15:07:30;6.18;;;2.13;;
6133;SDS011;3098;42.678;23.364;2023-04-28T15:09:59;3.88;;;1.50;;
6133;SDS011;3098;42.678;23.364;2023-04-28T15:12:27;4.07;;;2.10;;
6133;SDS011;3098;42.678;23.364;2023-04-28T15:14:56;3.63;;;2.47;;
6133;SDS011;3098;42.678;23.364;2023-04-28T15:17:24;7.93;;;2.22;;
6133;SDS011;3098;42.678;23.364;2023-04-28T15:19:51;4.60;;;2.13;;